Station Historical Data
Daily Summary for November 10, 2017 Units:  English    Metric   Both
« Previous Day
Next Day »
Daily Weekly Monthly Yearly Custom
  High: Low: Average:
Temperature: 28.6 °F 19.6 °F 22.9 °F
Dew Point: 17.4 °F 1.4 °F 10.6 °F
Humidity: 77% 37% 59%
Wind Speed: 14.0mph 0.0mph 5.3mph
Wind Gust: 25.0mph - -
Wind- - WNW
Pressure: 30.64 in 30.12 in -
Precipitation: 0.00 in    
Historical Graphs
 
 
Tabular Data for November 10, 2017
Time Temperature Dew Point Pressure Wind Wind Speed Wind Gust Humidity Rainfall Rate (Hourly)
00:04 28.6 °F 14.5 °F 30.12 in West 12.0 mph 22.0 mph 55% 0.00 in
00:09 28.5 °F 13.9 °F 30.13 in NW 8.0 mph 23.0 mph 54% 0.00 in
00:14 28.5 °F 13.9 °F 30.13 in NW 11.0 mph 25.0 mph 54% 0.00 in
00:19 28.5 °F 13.5 °F 30.13 in West 6.0 mph 24.0 mph 53% 0.00 in
00:24 28.3 °F 13.3 °F 30.13 in West 9.0 mph 21.0 mph 53% 0.00 in
00:29 28.2 °F 12.8 °F 30.13 in WNW 14.0 mph 20.0 mph 52% 0.00 in
00:34 27.9 °F 12.1 °F 30.14 in West 14.0 mph 19.0 mph 51% 0.00 in
00:39 27.7 °F 11.5 °F 30.14 in NW 9.0 mph 18.0 mph 50% 0.00 in
00:44 27.5 °F 11.7 °F 30.14 in West 10.0 mph 18.0 mph 51% 0.00 in
00:49 27.3 °F 12.0 °F 30.15 in West 9.0 mph 16.0 mph 52% 0.00 in
00:54 27.2 °F 11.9 °F 30.15 in West 9.0 mph 16.0 mph 52% 0.00 in
00:59 27.1 °F 13.1 °F 30.15 in West 10.0 mph 17.0 mph 55% 0.00 in
01:04 26.9 °F 13.3 °F 30.15 in WNW 9.0 mph 18.0 mph 56% 0.00 in
01:09 26.9 °F 13.7 °F 30.16 in WNW 9.0 mph 18.0 mph 57% 0.00 in
01:14 26.7 °F 13.5 °F 30.16 in NW 11.0 mph 19.0 mph 57% 0.00 in
01:19 26.7 °F 14.3 °F 30.16 in WNW 6.0 mph 21.0 mph 59% 0.00 in
01:24 26.6 °F 14.6 °F 30.17 in WNW 7.0 mph 15.0 mph 60% 0.00 in
01:29 26.5 °F 14.9 °F 30.17 in WNW 10.0 mph 21.0 mph 61% 0.00 in
01:34 26.5 °F 14.9 °F 30.17 in NW 5.0 mph 18.0 mph 61% 0.00 in
01:39 26.5 °F 15.2 °F 30.17 in West 7.0 mph 15.0 mph 62% 0.00 in
01:44 26.7 °F 15.4 °F 30.17 in West 10.0 mph 19.0 mph 62% 0.00 in
01:49 26.8 °F 15.9 °F 30.18 in WNW 9.0 mph 20.0 mph 63% 0.00 in
01:54 26.9 °F 16.0 °F 30.18 in WNW 8.0 mph 20.0 mph 63% 0.00 in
01:59 26.9 °F 16.3 °F 30.19 in WNW 8.0 mph 17.0 mph 64% 0.00 in
02:04 26.8 °F 16.6 °F 30.19 in WNW 8.0 mph 17.0 mph 65% 0.00 in
02:09 26.8 °F 17.0 °F 30.19 in WNW 7.0 mph 15.0 mph 66% 0.00 in
02:14 26.9 °F 17.4 °F 30.19 in WNW 7.0 mph 17.0 mph 67% 0.00 in
02:19 26.9 °F 17.4 °F 30.20 in West 9.0 mph 14.0 mph 67% 0.00 in
02:24 26.8 °F 17.0 °F 30.20 in NNW 4.0 mph 15.0 mph 66% 0.00 in
02:29 26.7 °F 16.9 °F 30.20 in West 10.0 mph 18.0 mph 66% 0.00 in
02:34 26.6 °F 16.8 °F 30.20 in West 14.0 mph 16.0 mph 66% 0.00 in
02:39 26.5 °F 16.7 °F 30.21 in NW 7.0 mph 13.0 mph 66% 0.00 in
02:44 26.4 °F 16.9 °F 30.21 in WNW 3.0 mph 13.0 mph 67% 0.00 in
02:49 26.3 °F 16.8 °F 30.21 in WNW 7.0 mph 15.0 mph 67% 0.00 in
02:54 26.3 °F 17.2 °F 30.21 in NNW 11.0 mph 14.0 mph 68% 0.00 in
02:59 26.3 °F 16.8 °F 30.22 in NW 7.0 mph 19.0 mph 67% 0.00 in
03:04 26.2 °F 16.7 °F 30.22 in NW 7.0 mph 19.0 mph 67% 0.00 in
03:09 26.0 °F 16.2 °F 30.23 in NW 6.0 mph 17.0 mph 66% 0.00 in
03:14 25.3 °F 15.2 °F 30.24 in NNW 8.0 mph 21.0 mph 65% 0.00 in
03:19 24.7 °F 14.9 °F 30.24 in NW 10.0 mph 21.0 mph 66% 0.00 in
03:24 24.4 °F 15.3 °F 30.24 in NW 8.0 mph 18.0 mph 68% 0.00 in
03:29 24.1 °F 15.7 °F 30.25 in NNW 3.0 mph 13.0 mph 70% 0.00 in
03:34 23.9 °F 15.5 °F 30.25 in NW 2.0 mph 15.0 mph 70% 0.00 in
03:39 23.7 °F 15.0 °F 30.25 in West 5.0 mph 14.0 mph 69% 0.00 in
03:44 23.7 °F 14.3 °F 30.26 in NW 6.0 mph 15.0 mph 67% 0.00 in
03:49 23.6 °F 13.9 °F 30.26 in NNW 8.0 mph 15.0 mph 66% 0.00 in
03:54 23.4 °F 13.4 °F 30.26 in NNW 6.0 mph 15.0 mph 65% 0.00 in
03:59 23.3 °F 12.6 °F 30.27 in NW 6.0 mph 12.0 mph 63% 0.00 in
04:04 23.2 °F 12.1 °F 30.27 in NW 7.0 mph 15.0 mph 62% 0.00 in
04:09 23.1 °F 11.3 °F 30.27 in NW 8.0 mph 19.0 mph 60% 0.00 in
04:14 23.0 °F 11.2 °F 30.27 in NW 8.0 mph 19.0 mph 60% 0.00 in
04:19 23.0 °F 11.2 °F 30.28 in NW 7.0 mph 17.0 mph 60% 0.00 in
04:24 22.9 °F 11.1 °F 30.28 in WNW 8.0 mph 16.0 mph 60% 0.00 in
04:29 22.8 °F 11.0 °F 30.29 in NW 7.0 mph 14.0 mph 60% 0.00 in
04:34 22.8 °F 10.6 °F 30.29 in NW 8.0 mph 19.0 mph 59% 0.00 in
04:39 22.8 °F 10.6 °F 30.30 in NW 8.0 mph 19.0 mph 59% 0.00 in
04:44 22.7 °F 10.5 °F 30.30 in NW 7.0 mph 16.0 mph 59% 0.00 in
04:49 22.7 °F 10.5 °F 30.31 in WNW 8.0 mph 20.0 mph 59% 0.00 in
04:54 22.8 °F 10.6 °F 30.31 in North 6.0 mph 18.0 mph 59% 0.00 in
04:59 22.8 °F 10.6 °F 30.31 in NNW 4.0 mph 14.0 mph 59% 0.00 in
05:04 23.0 °F 10.8 °F 30.32 in NNW 7.0 mph 14.0 mph 59% 0.00 in
05:09 23.1 °F 10.9 °F 30.31 in NNW 4.0 mph 14.0 mph 59% 0.00 in
05:14 23.0 °F 10.4 °F 30.32 in NW 7.0 mph 19.0 mph 58% 0.00 in
05:19 23.1 °F 10.5 °F 30.33 in NNE 6.0 mph 16.0 mph 58% 0.00 in
05:24 22.9 °F 9.9 °F 30.33 in NNW 8.0 mph 15.0 mph 57% 0.00 in
05:29 23.0 °F 10.0 °F 30.33 in NW 3.0 mph 18.0 mph 57% 0.00 in
05:34 22.9 °F 9.9 °F 30.34 in NNW 9.0 mph 15.0 mph 57% 0.00 in
05:39 22.8 °F 9.4 °F 30.34 in NW 7.0 mph 15.0 mph 56% 0.00 in
05:44 22.7 °F 9.3 °F 30.34 in NNW 6.0 mph 13.0 mph 56% 0.00 in
05:49 22.6 °F 9.2 °F 30.34 in WNW 7.0 mph 18.0 mph 56% 0.00 in
05:54 22.5 °F 9.1 °F 30.35 in NW 5.0 mph 14.0 mph 56% 0.00 in
05:59 22.4 °F 9.1 °F 30.35 in NNW 3.0 mph 14.0 mph 56% 0.00 in
06:04 22.2 °F 8.9 °F 30.35 in West 8.0 mph 19.0 mph 56% 0.00 in
06:09 22.1 °F 8.8 °F 30.36 in NW 9.0 mph 19.0 mph 56% 0.00 in
06:14 22.0 °F 9.1 °F 30.36 in NW 7.0 mph 17.0 mph 57% 0.00 in
06:19 21.9 °F 9.4 °F 30.37 in NW 6.0 mph 13.0 mph 58% 0.00 in
06:24 21.6 °F 9.1 °F 30.37 in NW 7.0 mph 13.0 mph 58% 0.00 in
06:29 21.5 °F 9.0 °F 30.37 in NW 4.0 mph 17.0 mph 58% 0.00 in
06:34 21.5 °F 9.4 °F 30.38 in WNW 6.0 mph 16.0 mph 59% 0.00 in
06:39 21.4 °F 9.3 °F 30.38 in NW 7.0 mph 17.0 mph 59% 0.00 in
06:44 21.3 °F 9.6 °F 30.38 in NW 7.0 mph 17.0 mph 60% 0.00 in
06:49 21.2 °F 9.1 °F 30.39 in NW 6.0 mph 12.0 mph 59% 0.00 in
06:54 21.1 °F 9.4 °F 30.39 in NW 6.0 mph 14.0 mph 60% 0.00 in
06:59 21.0 °F 9.3 °F 30.39 in WNW 10.0 mph 17.0 mph 60% 0.00 in
07:04 20.9 °F 9.5 °F 30.39 in WNW 11.0 mph 13.0 mph 61% 0.00 in
07:09 20.8 °F 9.5 °F 30.40 in NNW 6.0 mph 14.0 mph 61% 0.00 in
07:14 20.7 °F 9.4 °F 30.40 in NW 5.0 mph 14.0 mph 61% 0.00 in
07:19 20.7 °F 9.4 °F 30.41 in NW 5.0 mph 13.0 mph 61% 0.00 in
07:24 20.6 °F 8.5 °F 30.41 in WNW 6.0 mph 17.0 mph 59% 0.00 in
07:29 20.6 °F 7.8 °F 30.41 in West 11.0 mph 13.0 mph 57% 0.00 in
07:34 20.6 °F 7.8 °F 30.42 in NNW 6.0 mph 12.0 mph 57% 0.00 in
07:39 20.7 °F 7.9 °F 30.42 in NW 4.0 mph 11.0 mph 57% 0.00 in
07:44 20.7 °F 7.9 °F 30.42 in NNW 4.0 mph 17.0 mph 57% 0.00 in
07:49 20.9 °F 8.4 °F 30.43 in NW 7.0 mph 17.0 mph 58% 0.00 in
07:54 20.9 °F 8.0 °F 30.43 in NW 7.0 mph 14.0 mph 57% 0.00 in
07:59 21.0 °F 8.5 °F 30.43 in WNW 6.0 mph 14.0 mph 58% 0.00 in
08:04 21.2 °F 9.1 °F 30.44 in NW 6.0 mph 14.0 mph 59% 0.00 in
08:09 21.3 °F 9.2 °F 30.44 in WNW 6.0 mph 13.0 mph 59% 0.00 in
08:14 21.2 °F 9.5 °F 30.44 in WNW 7.0 mph 13.0 mph 60% 0.00 in
08:19 21.3 °F 9.6 °F 30.44 in NW 6.0 mph 13.0 mph 60% 0.00 in
08:24 21.8 °F 10.0 °F 30.45 in NW 6.0 mph 15.0 mph 60% 0.00 in
08:29 21.6 °F 9.5 °F 30.45 in NNW 7.0 mph 15.0 mph 59% 0.00 in
08:34 21.4 °F 9.3 °F 30.45 in NW 6.0 mph 17.0 mph 59% 0.00 in
08:39 21.5 °F 9.4 °F 30.45 in NW 7.0 mph 12.0 mph 59% 0.00 in
08:44 21.7 °F 9.2 °F 30.46 in WNW 10.0 mph 15.0 mph 58% 0.00 in
08:49 22.2 °F 9.7 °F 30.46 in WNW 5.0 mph 14.0 mph 58% 0.00 in
08:54 22.8 °F 10.2 °F 30.46 in NW 6.0 mph 14.0 mph 58% 0.00 in
08:59 23.1 °F 10.1 °F 30.46 in WNW 6.0 mph 12.0 mph 57% 0.00 in
09:04 23.0 °F 10.8 °F 30.46 in WNW 6.0 mph 13.0 mph 59% 0.00 in
09:09 22.1 °F 11.8 °F 30.47 in NNW 6.0 mph 14.0 mph 64% 0.00 in
09:14 21.5 °F 13.5 °F 30.47 in North 4.0 mph 16.0 mph 71% 0.00 in
09:19 20.9 °F 14.5 °F 30.48 in NNW 5.0 mph 16.0 mph 76% 0.00 in
09:24 20.6 °F 14.5 °F 30.48 in NNW 2.0 mph 14.0 mph 77% 0.00 in
09:29 19.9 °F 13.9 °F 30.49 in North 5.0 mph 13.0 mph 77% 0.00 in
09:34 19.6 °F 13.6 °F 30.49 in NW 10.0 mph 16.0 mph 77% 0.00 in
09:39 19.9 °F 13.9 °F 30.49 in North 6.0 mph 12.0 mph 77% 0.00 in
09:44 20.6 °F 13.6 °F 30.50 in NNW 9.0 mph 16.0 mph 74% 0.00 in
09:49 21.0 °F 13.4 °F 30.50 in NW 5.0 mph 15.0 mph 72% 0.00 in
09:54 21.0 °F 13.1 °F 30.50 in North 8.0 mph 12.0 mph 71% 0.00 in
09:59 21.1 °F 12.5 °F 30.50 in NNW 5.0 mph 12.0 mph 69% 0.00 in
10:04 21.3 °F 12.0 °F 30.51 in NNW 5.0 mph 12.0 mph 67% 0.00 in
10:09 21.7 °F 12.8 °F 30.51 in North 5.0 mph 12.0 mph 68% 0.00 in
10:14 21.9 °F 12.6 °F 30.51 in North 6.0 mph 11.0 mph 67% 0.00 in
10:19 21.9 °F 12.3 °F 30.52 in North 6.0 mph 12.0 mph 66% 0.00 in
10:24 20.9 °F 11.3 °F 30.52 in NNW 8.0 mph 15.0 mph 66% 0.00 in
10:29 20.6 °F 11.0 °F 30.52 in NNW 5.0 mph 15.0 mph 66% 0.00 in
10:34 20.2 °F 10.3 °F 30.53 in NW 7.0 mph 11.0 mph 65% 0.00 in
10:39 20.7 °F 10.4 °F 30.53 in NNW 13.0 mph 15.0 mph 64% 0.00 in
10:44 21.8 °F 10.4 °F 30.53 in WNW 9.0 mph 16.0 mph 61% 0.00 in
10:49 20.9 °F 8.4 °F 30.54 in NNW 13.0 mph 20.0 mph 58% 0.00 in
10:54 21.9 °F 10.1 °F 30.54 in North 4.0 mph 20.0 mph 60% 0.00 in
10:59 22.4 °F 10.6 °F 30.54 in WNW 9.0 mph 13.0 mph 60% 0.00 in
11:04 21.8 °F 9.7 °F 30.54 in NNW 6.0 mph 17.0 mph 59% 0.00 in
11:09 21.9 °F 9.4 °F 30.54 in North 5.0 mph 19.0 mph 58% 0.00 in
11:14 22.3 °F 9.4 °F 30.55 in NNW 8.0 mph 19.0 mph 57% 0.00 in
11:19 22.2 °F 8.9 °F 30.55 in NW 8.0 mph 17.0 mph 56% 0.00 in
11:24 22.8 °F 10.2 °F 30.55 in NNW 8.0 mph 16.0 mph 58% 0.00 in
11:29 23.2 °F 9.0 °F 30.55 in North 10.0 mph 16.0 mph 54% 0.00 in
11:34 22.4 °F 8.2 °F 30.55 in NNW 7.0 mph 16.0 mph 54% 0.00 in
11:39 22.9 °F 8.7 °F 30.55 in NNW 8.0 mph 17.0 mph 54% 0.00 in
11:44 22.7 °F 8.5 °F 30.55 in NW 14.0 mph 19.0 mph 54% 0.00 in
11:49 22.8 °F 8.6 °F 30.55 in NNW 2.0 mph 14.0 mph 54% 0.00 in
11:54 24.1 °F 9.8 °F 30.55 in WNW 2.0 mph 11.0 mph 54% 0.00 in
11:59 23.5 °F 8.9 °F 30.54 in NNW 4.0 mph 15.0 mph 53% 0.00 in
12:04 23.9 °F 10.1 °F 30.55 in NW 6.0 mph 16.0 mph 55% 0.00 in
12:09 23.7 °F 8.6 °F 30.55 in NW 6.0 mph 16.0 mph 52% 0.00 in
12:14 23.3 °F 8.2 °F 30.55 in NNW 6.0 mph 15.0 mph 52% 0.00 in
12:19 23.3 °F 8.2 °F 30.54 in NW 6.0 mph 15.0 mph 52% 0.00 in
12:24 23.2 °F 7.7 °F 30.54 in NW 7.0 mph 17.0 mph 51% 0.00 in
12:29 22.9 °F 7.9 °F 30.54 in North 7.0 mph 13.0 mph 52% 0.00 in
12:34 23.3 °F 7.4 °F 30.54 in NW 6.0 mph 14.0 mph 50% 0.00 in
12:39 23.6 °F 7.2 °F 30.54 in NW 7.0 mph 17.0 mph 49% 0.00 in
12:44 23.5 °F 6.7 °F 30.54 in NW 5.0 mph 17.0 mph 48% 0.00 in
12:49 24.3 °F 7.9 °F 30.54 in NNW 6.0 mph 11.0 mph 49% 0.00 in
12:54 23.7 °F 6.4 °F 30.54 in NNE 5.0 mph 12.0 mph 47% 0.00 in
12:59 23.5 °F 7.6 °F 30.54 in West 11.0 mph 15.0 mph 50% 0.00 in
13:04 23.6 °F 6.8 °F 30.54 in NW 3.0 mph 14.0 mph 48% 0.00 in
13:09 23.5 °F 6.7 °F 30.54 in NW 7.0 mph 14.0 mph 48% 0.00 in
13:14 23.3 °F 6.5 °F 30.55 in NNW 6.0 mph 13.0 mph 48% 0.00 in
13:19 23.8 °F 6.5 °F 30.55 in NNW 6.0 mph 13.0 mph 47% 0.00 in
13:24 23.8 °F 6.0 °F 30.55 in NNW 6.0 mph 11.0 mph 46% 0.00 in
13:34 24.2 °F 6.4 °F 30.55 in NNW 5.0 mph 18.0 mph 46% 0.00 in
13:39 23.9 °F 4.6 °F 30.55 in West 8.0 mph 12.0 mph 43% 0.00 in
13:44 23.9 °F 3.6 °F 30.55 in NNW 7.0 mph 12.0 mph 41% 0.00 in
13:49 24.1 °F 2.7 °F 30.55 in NNW 7.0 mph 16.0 mph 39% 0.00 in
13:54 23.9 °F 2.5 °F 30.55 in NNW 7.0 mph 16.0 mph 39% 0.00 in
13:59 23.9 °F 1.4 °F 30.55 in NNW 2.0 mph 13.0 mph 37% 0.00 in
14:04 24.0 °F 2.0 °F 30.56 in NNE 5.0 mph 13.0 mph 38% 0.00 in
14:09 23.9 °F 2.5 °F 30.55 in NNE 4.0 mph 10.0 mph 39% 0.00 in
14:14 23.6 °F 2.2 °F 30.56 in North 6.0 mph 11.0 mph 39% 0.00 in
14:19 23.8 °F 2.4 °F 30.56 in North 6.0 mph 14.0 mph 39% 0.00 in
14:24 24.3 °F 2.9 °F 30.56 in NNW 6.0 mph 14.0 mph 39% 0.00 in
14:29 23.9 °F 1.9 °F 30.56 in NNW 6.0 mph 13.0 mph 38% 0.00 in
14:34 23.7 °F 2.3 °F 30.56 in North 6.0 mph 15.0 mph 39% 0.00 in
14:39 23.8 °F 2.4 °F 30.56 in North 6.0 mph 15.0 mph 39% 0.00 in
14:44 23.7 °F 2.9 °F 30.57 in NNE 3.0 mph 13.0 mph 40% 0.00 in
14:49 24.0 °F 3.7 °F 30.57 in North 5.0 mph 13.0 mph 41% 0.00 in
14:54 24.2 °F 3.3 °F 30.57 in NNW 4.0 mph 12.0 mph 40% 0.00 in
14:59 24.0 °F 3.7 °F 30.57 in NNW 2.0 mph 8.0 mph 41% 0.00 in
15:04 24.0 °F 2.6 °F 30.57 in NW 3.0 mph 12.0 mph 39% 0.00 in
15:09 23.7 °F 1.8 °F 30.57 in North 5.0 mph 15.0 mph 38% 0.00 in
15:14 23.6 °F 2.8 °F 30.58 in NNW 4.0 mph 13.0 mph 40% 0.00 in
15:19 23.6 °F 3.3 °F 30.58 in NNW 5.0 mph 13.0 mph 41% 0.00 in
15:24 23.6 °F 4.3 °F 30.58 in North 5.0 mph 11.0 mph 43% 0.00 in
15:29 23.5 °F 3.7 °F 30.58 in NNW 5.0 mph 12.0 mph 42% 0.00 in
15:34 23.4 °F 4.2 °F 30.58 in NNW 4.0 mph 12.0 mph 43% 0.00 in
15:39 23.5 °F 4.8 °F 30.58 in NNW 3.0 mph 8.0 mph 44% 0.00 in
15:44 23.1 °F 4.4 °F 30.59 in North 4.0 mph 11.0 mph 44% 0.00 in
15:49 22.9 °F 4.7 °F 30.59 in NW 4.0 mph 10.0 mph 45% 0.00 in
15:54 22.9 °F 4.7 °F 30.59 in NNW 4.0 mph 10.0 mph 45% 0.00 in
15:59 22.9 °F 5.6 °F 30.59 in NNW 4.0 mph 10.0 mph 47% 0.00 in
16:04 22.7 °F 5.5 °F 30.59 in NW 4.0 mph 10.0 mph 47% 0.00 in
16:09 22.7 °F 6.4 °F 30.59 in NNW 6.0 mph 9.0 mph 49% 0.00 in
16:14 22.5 °F 6.6 °F 30.59 in North 4.0 mph 8.0 mph 50% 0.00 in
16:19 22.3 °F 6.9 °F 30.59 in WNW 3.0 mph 9.0 mph 51% 0.00 in
16:24 22.2 °F 6.8 °F 30.59 in NW 3.0 mph 9.0 mph 51% 0.00 in
16:29 22.1 °F 7.6 °F 30.60 in NW 4.0 mph 9.0 mph 53% 0.00 in
16:34 22.0 °F 8.3 °F 30.60 in NW 3.0 mph 9.0 mph 55% 0.00 in
16:39 21.9 °F 8.6 °F 30.60 in NNW 4.0 mph 8.0 mph 56% 0.00 in
16:44 21.8 °F 8.5 °F 30.60 in WNW 3.0 mph 8.0 mph 56% 0.00 in
16:49 21.7 °F 8.8 °F 30.60 in Calm   6.0 mph 57% 0.00 in
16:54 21.5 °F 9.0 °F 30.59 in NW 5.0 mph 7.0 mph 58% 0.00 in
16:59 21.4 °F 8.9 °F 30.60 in NW 2.0 mph 9.0 mph 58% 0.00 in
17:04 21.2 °F 8.7 °F 30.60 in NW 2.0 mph 9.0 mph 58% 0.00 in
17:09 21.2 °F 9.1 °F 30.60 in NW 2.0 mph 7.0 mph 59% 0.00 in
17:14 21.2 °F 9.5 °F 30.60 in WNW 2.0 mph 7.0 mph 60% 0.00 in
17:19 21.1 °F 9.7 °F 30.60 in WNW 5.0 mph 5.0 mph 61% 0.00 in
17:24 21.2 °F 10.2 °F 30.60 in NNW 2.0 mph 6.0 mph 62% 0.00 in
17:29 21.2 °F 10.2 °F 30.60 in Calm   6.0 mph 62% 0.00 in
17:34 21.0 °F 10.4 °F 30.60 in NW 1.0 mph 6.0 mph 63% 0.00 in
17:39 21.1 °F 10.5 °F 30.60 in Calm   4.0 mph 63% 0.00 in
17:44 21.1 °F 10.1 °F 30.60 in NW 1.0 mph 4.0 mph 62% 0.00 in
17:49 21.1 °F 10.5 °F 30.61 in Calm   3.0 mph 63% 0.00 in
17:54 21.0 °F 10.4 °F 30.61 in NW 2.0 mph 5.0 mph 63% 0.00 in
17:59 21.1 °F 10.5 °F 30.61 in WNW 1.0 mph 5.0 mph 63% 0.00 in
18:04 21.1 °F 10.8 °F 30.61 in WNW 2.0 mph 5.0 mph 64% 0.00 in
18:09 21.1 °F 10.8 °F 30.61 in WNW 1.0 mph 2.0 mph 64% 0.00 in
18:14 21.0 °F 10.7 °F 30.61 in Calm     64% 0.00 in
18:19 21.0 °F 11.1 °F 30.62 in Calm     65% 0.00 in
18:24 20.9 °F 11.0 °F 30.61 in Calm   2.0 mph 65% 0.00 in
18:29 21.0 °F 11.1 °F 30.62 in Calm   2.0 mph 65% 0.00 in
18:34 21.1 °F 11.2 °F 30.62 in Calm     65% 0.00 in
18:39 21.0 °F 11.1 °F 30.62 in West 3.0 mph 5.0 mph 65% 0.00 in
18:44 21.1 °F 11.2 °F 30.62 in WSW 2.0 mph 4.0 mph 65% 0.00 in
18:49 21.2 °F 11.3 °F 30.62 in WSW 3.0 mph 5.0 mph 65% 0.00 in
18:54 21.2 °F 11.3 °F 30.62 in Calm   3.0 mph 65% 0.00 in
18:59 21.2 °F 11.6 °F 30.62 in WSW 1.0 mph 3.0 mph 66% 0.00 in
19:04 21.3 °F 11.7 °F 30.62 in West 1.0 mph 5.0 mph 66% 0.00 in
19:09 21.3 °F 11.7 °F 30.62 in West 2.0 mph 5.0 mph 66% 0.00 in
19:14 21.3 °F 11.7 °F 30.62 in West 2.0 mph 5.0 mph 66% 0.00 in
19:19 21.4 °F 11.8 °F 30.63 in West 3.0 mph 8.0 mph 66% 0.00 in
19:24 21.6 °F 11.6 °F 30.63 in West 3.0 mph 8.0 mph 65% 0.00 in
19:29 21.7 °F 11.7 °F 30.63 in West 3.0 mph 7.0 mph 65% 0.00 in
19:34 21.8 °F 11.5 °F 30.63 in West 2.0 mph 6.0 mph 64% 0.00 in
19:39 21.9 °F 11.6 °F 30.63 in Calm   6.0 mph 64% 0.00 in
19:44 21.9 °F 11.6 °F 30.63 in SW 7.0 mph 7.0 mph 64% 0.00 in
19:49 22.0 °F 11.7 °F 30.63 in Calm   9.0 mph 64% 0.00 in
19:54 22.1 °F 11.8 °F 30.63 in WNW 4.0 mph 7.0 mph 64% 0.00 in
19:59 22.1 °F 11.8 °F 30.63 in SW 2.0 mph 6.0 mph 64% 0.00 in
20:04 22.1 °F 11.8 °F 30.63 in WSW 3.0 mph 9.0 mph 64% 0.00 in
20:09 22.1 °F 11.8 °F 30.63 in WNW 4.0 mph 7.0 mph 64% 0.00 in
20:14 22.2 °F 11.9 °F 30.63 in West 4.0 mph 7.0 mph 64% 0.00 in
20:19 22.2 °F 12.2 °F 30.63 in West 4.0 mph 8.0 mph 65% 0.00 in
20:24 22.3 °F 12.3 °F 30.63 in West 4.0 mph 9.0 mph 65% 0.00 in
20:29 22.3 °F 12.3 °F 30.63 in West 4.0 mph 9.0 mph 65% 0.00 in
20:34 22.3 °F 12.3 °F 30.63 in WNW 6.0 mph 8.0 mph 65% 0.00 in
20:39 22.2 °F 12.2 °F 30.62 in West 3.0 mph 8.0 mph 65% 0.00 in
20:44 22.2 °F 12.2 °F 30.62 in West 4.0 mph 8.0 mph 65% 0.00 in
20:49 22.2 °F 12.6 °F 30.62 in West 4.0 mph 7.0 mph 66% 0.00 in
20:54 22.2 °F 12.6 °F 30.63 in WNW 4.0 mph 6.0 mph 66% 0.00 in
20:59 22.2 °F 12.6 °F 30.63 in WSW 3.0 mph 9.0 mph 66% 0.00 in
21:04 22.2 °F 12.9 °F 30.62 in WSW 4.0 mph 7.0 mph 67% 0.00 in
21:09 22.3 °F 13.0 °F 30.63 in West 4.0 mph 7.0 mph 67% 0.00 in
21:14 22.3 °F 13.0 °F 30.63 in West 3.0 mph 7.0 mph 67% 0.00 in
21:19 22.2 °F 13.2 °F 30.63 in West 4.0 mph 9.0 mph 68% 0.00 in
21:24 22.2 °F 13.2 °F 30.63 in West 6.0 mph 8.0 mph 68% 0.00 in
21:29 22.2 °F 13.6 °F 30.63 in SW 2.0 mph 9.0 mph 69% 0.00 in
21:34 22.2 °F 13.6 °F 30.64 in West 5.0 mph 6.0 mph 69% 0.00 in
21:39 22.1 °F 13.5 °F 30.64 in West 4.0 mph 10.0 mph 69% 0.00 in
21:44 22.0 °F 13.4 °F 30.64 in West 5.0 mph 10.0 mph 69% 0.00 in
21:49 21.9 °F 13.3 °F 30.64 in West 5.0 mph 10.0 mph 69% 0.00 in
21:54 21.9 °F 13.6 °F 30.64 in West 5.0 mph 10.0 mph 70% 0.00 in
21:59 22.0 °F 13.7 °F 30.64 in West 3.0 mph 8.0 mph 70% 0.00 in
22:04 22.0 °F 13.7 °F 30.64 in WNW 2.0 mph 6.0 mph 70% 0.00 in
22:09 22.0 °F 13.7 °F 30.63 in West 3.0 mph 6.0 mph 70% 0.00 in
22:19 21.9 °F 13.9 °F 30.63 in WNW 2.0 mph 7.0 mph 71% 0.00 in
22:24 21.9 °F 13.9 °F 30.63 in West 2.0 mph 5.0 mph 71% 0.00 in
22:29 21.9 °F 13.9 °F 30.62 in West 4.0 mph 7.0 mph 71% 0.00 in
22:34 21.9 °F 13.6 °F 30.62 in Calm   7.0 mph 70% 0.00 in
22:39 22.0 °F 13.7 °F 30.63 in West 3.0 mph 7.0 mph 70% 0.00 in
22:44 21.9 °F 13.6 °F 30.62 in WSW 2.0 mph 6.0 mph 70% 0.00 in
22:49 21.9 °F 13.6 °F 30.62 in West 2.0 mph 6.0 mph 70% 0.00 in
22:54 22.0 °F 13.7 °F 30.62 in West 3.0 mph 6.0 mph 70% 0.00 in
22:59 22.0 °F 13.7 °F 30.62 in West 2.0 mph 6.0 mph 70% 0.00 in
23:04 22.0 °F 13.7 °F 30.62 in West 3.0 mph 5.0 mph 70% 0.00 in
23:09 21.8 °F 13.5 °F 30.62 in WNW 2.0 mph 6.0 mph 70% 0.00 in
23:14 21.8 °F 13.8 °F 30.62 in WNW 3.0 mph 6.0 mph 71% 0.00 in
23:19 21.7 °F 13.4 °F 30.62 in West 1.0 mph 5.0 mph 70% 0.00 in
23:24 21.5 °F 13.2 °F 30.62 in WNW 1.0 mph 3.0 mph 70% 0.00 in
23:29 21.4 °F 13.5 °F 30.62 in West 1.0 mph 4.0 mph 71% 0.00 in
23:34 21.5 °F 13.5 °F 30.62 in WNW 2.0 mph 5.0 mph 71% 0.00 in
23:39 21.6 °F 14.0 °F 30.63 in NW 1.0 mph 4.0 mph 72% 0.00 in
23:44 21.6 °F 14.0 °F 30.62 in WNW 1.0 mph 4.0 mph 72% 0.00 in
23:49 21.5 °F 13.9 °F 30.63 in WNW 1.0 mph 5.0 mph 72% 0.00 in
23:54 21.4 °F 13.8 °F 30.63 in West 2.0 mph 5.0 mph 72% 0.00 in
23:59 21.4 °F 13.8 °F 30.63 in West 1.0 mph 3.0 mph 72% 0.00 in
Buffalo, New York, USA
Compliments of Weather Underground - 2.5 mb